Time;durP1;ratioP1;P1;durP2;ratioP2;P2;SDS_P1;SDS_P2;PMS_P1;PMS_P2;Temp;Humidity;BMP_temperature;BMP_pressure;BME280_temperature;BME280_humidity;BME280_pressure;Samples;Min_cycle;Max_cycle;Signal;HPM_P1;HPM_P2
2022/10/16 00:04:41;;;;;;;36.38;28.45;;;23.00;57.50;;;;;;4816638;54;21008;-31
2022/10/16 00:09:41;;;;;;;36.25;27.87;;;23.00;57.60;;;;;;4804834;54;21008;-30
2022/10/16 00:14:43;;;;;;;34.80;28.30;;;23.00;57.50;;;;;;4796097;58;21531;-28
2022/10/16 00:19:44;;;;;;;35.30;27.40;;;23.00;57.50;;;;;;4794977;58;21525;-30
2022/10/16 00:24:45;;;;;;;32.88;26.42;;;22.80;57.40;;;;;;4817829;54;21011;-30
2022/10/16 00:29:51;;;;;;;34.13;27.80;;;23.00;57.50;;;;;;4817864;54;21068;-33
2022/10/16 00:34:54;;;;;;;35.40;27.23;;;23.00;57.50;;;;;;4807940;54;21589;-36
2022/10/16 00:39:55;;;;;;;35.55;26.40;;;23.00;57.50;;;;;;4794964;54;21505;-35
2022/10/16 00:44:57;;;;;;;33.90;27.23;;;23.00;57.50;;;;;;4796925;58;21486;-30
2022/10/16 00:50:33;;;;;;;32.30;25.55;;;23.00;57.40;;;;;;4876897;54;21008;-27
2022/10/16 00:55:34;;;;;;;31.08;25.60;;;23.00;57.30;;;;;;4814346;54;21008;-31
2022/10/16 01:00:35;;;;;;;30.23;25.05;;;23.00;57.40;;;;;;4847480;54;21510;-31
2022/10/16 01:05:50;;;;;;;31.98;24.87;;;23.00;57.50;;;;;;4795450;54;21016;-33
2022/10/16 01:12:47;;;;;;;31.08;25.23;;;23.00;57.40;;;;;;4843737;54;21553;-34
2022/10/16 01:18:14;;;;;;;32.47;25.40;;;23.00;57.40;;;;;;4804567;54;21004;-29
2022/10/16 01:23:56;;;;;;;;;;;22.90;58.00;;;;;;4800918;54;21080;-33
2022/10/16 01:29:18;;;;;;;32.33;25.35;;;23.00;57.30;;;;;;4837720;54;20141;-29
2022/10/16 01:34:27;;;;;;;29.65;24.20;;;22.90;57.20;;;;;;4855118;54;21565;-29
2022/10/16 01:39:32;;;;;;;30.30;24.12;;;22.90;57.30;;;;;;4881923;54;21000;-30
2022/10/16 01:44:36;;;;;;;29.12;23.00;;;22.90;57.30;;;;;;4836327;54;21071;-29
2022/10/16 01:49:39;;;;;;;29.02;23.65;;;22.90;57.30;;;;;;4803656;54;21497;-36
2022/10/16 01:54:43;;;;;;;31.00;24.00;;;23.00;57.30;;;;;;4829163;54;20995;-31
2022/10/16 01:59:48;;;;;;;29.35;23.02;;;22.90;57.20;;;;;;4866657;54;21063;-34
2022/10/16 02:04:55;;;;;;;28.65;22.35;;;22.90;57.20;;;;;;4833716;54;20988;-28
2022/10/16 02:09:59;;;;;;;27.73;22.50;;;22.90;57.20;;;;;;4803033;54;21006;-31
2022/10/16 02:15:00;;;;;;;31.12;23.40;;;22.90;57.30;;;;;;4828001;54;21075;-34
2022/10/16 02:20:01;;;;;;;28.45;23.30;;;22.90;57.20;;;;;;4811706;54;21087;-29
2022/10/16 02:25:16;;;;;;;31.08;22.98;;;22.90;57.20;;;;;;4818340;54;21051;-34
2022/10/16 02:31:20;;;;;;;28.23;22.20;;;22.90;57.20;;;;;;4833774;54;21005;-36
2022/10/16 02:36:22;;;;;;;27.50;21.65;;;22.90;57.10;;;;;;4795612;54;21020;-36
2022/10/16 02:41:24;;;;;;;29.27;22.75;;;22.90;57.10;;;;;;4830263;54;21039;-33
2022/10/16 02:46:25;;;;;;;27.25;21.25;;;22.90;57.10;;;;;;4806560;54;21075;-34
2022/10/16 02:51:25;;;;;;;26.20;21.12;;;22.90;57.10;;;;;;4796256;58;21015;-35
2022/10/16 02:56:27;;;;;;;26.52;21.27;;;22.90;57.00;;;;;;4861687;54;21566;-29
2022/10/16 03:01:27;;;;;;;26.42;21.17;;;22.90;57.10;;;;;;4804088;54;21577;-34
2022/10/16 03:06:28;;;;;;;26.17;21.80;;;22.90;57.00;;;;;;4795760;58;20992;-33
2022/10/16 03:11:32;;;;;;;24.35;20.12;;;22.90;57.10;;;;;;4847717;54;21020;-33
2022/10/16 03:16:33;;;;;;;25.23;20.90;;;22.90;56.90;;;;;;4805797;54;21000;-34
2022/10/16 03:21:33;;;;;;;21.70;19.20;;;22.90;56.90;;;;;;4794460;55;21508;-35
2022/10/16 03:26:34;;;;;;;22.37;18.73;;;22.90;56.90;;;;;;4855644;54;21063;-25
2022/10/16 03:31:35;;;;;;;24.50;19.92;;;22.90;56.90;;;;;;4817525;54;20995;-34
2022/10/16 03:36:36;;;;;;;22.75;18.98;;;22.90;56.90;;;;;;4802285;54;21028;-33
2022/10/16 03:41:37;;;;;;;23.80;18.95;;;22.90;56.90;;;;;;4801052;54;21510;-31
2022/10/16 03:46:37;;;;;;;23.38;19.05;;;22.90;56.80;;;;;;4818947;54;21509;-29
2022/10/16 03:51:38;;;;;;;22.20;19.02;;;22.90;56.80;;;;;;4805534;54;21020;-29
2022/10/16 03:56:42;;;;;;;23.23;18.58;;;22.90;56.70;;;;;;4811844;54;21013;-28
2022/10/16 04:01:43;;;;;;;21.37;18.17;;;22.90;56.80;;;;;;4800781;54;21063;-31
2022/10/16 04:06:44;;;;;;;23.33;19.12;;;22.90;56.80;;;;;;4825333;54;21479;-34
2022/10/16 04:11:45;;;;;;;22.00;17.73;;;22.90;56.80;;;;;;4824359;54;20999;-35
2022/10/16 04:16:45;;;;;;;22.50;18.42;;;22.90;56.80;;;;;;4802914;54;20991;-30
2022/10/16 04:21:46;;;;;;;19.60;16.90;;;22.90;56.60;;;;;;4828992;54;21007;-33
2022/10/16 04:26:47;;;;;;;22.75;18.08;;;22.90;56.70;;;;;;4829827;54;21540;-30
2022/10/16 04:31:48;;;;;;;23.00;18.23;;;22.90;56.70;;;;;;4794977;58;21502;-29
2022/10/16 04:36:49;;;;;;;19.83;16.95;;;22.90;56.60;;;;;;4804087;54;21408;-30
2022/10/16 04:41:50;;;;;;;21.75;17.87;;;22.90;57.20;;;;;;4795455;58;21482;-26
2022/10/16 04:46:51;;;;;;;21.67;16.92;;;22.90;56.60;;;;;;4827249;54;20988;-35
2022/10/16 04:51:52;;;;;;;19.98;16.80;;;22.90;56.70;;;;;;4808580;54;21008;-33
2022/10/16 04:56:53;;;;;;;19.48;16.33;;;22.90;56.50;;;;;;4829710;54;21008;-31
2022/10/16 05:01:53;;;;;;;20.12;17.12;;;22.90;56.50;;;;;;4817746;54;21482;-37
2022/10/16 05:06:54;;;;;;;21.55;17.40;;;22.90;56.60;;;;;;4809404;54;21074;-36
2022/10/16 05:11:58;;;;;;;20.42;16.90;;;22.90;56.50;;;;;;4826763;54;21008;-26
2022/10/16 05:17:00;;;;;;;21.45;16.60;;;22.90;56.50;;;;;;4829518;54;20999;-34
2022/10/16 05:22:01;;;;;;;21.08;16.92;;;22.90;56.50;;;;;;4802264;54;21494;-36
2022/10/16 05:27:05;;;;;;;18.67;15.75;;;22.80;56.30;;;;;;4796329;54;21050;-32
2022/10/16 05:32:06;;;;;;;20.23;15.70;;;22.90;56.40;;;;;;4796310;54;21063;-34
2022/10/16 05:37:07;;;;;;;19.75;15.98;;;22.90;56.30;;;;;;4795777;56;21560;-27
2022/10/16 05:42:08;;;;;;;18.70;15.70;;;22.90;56.30;;;;;;4819540;54;21494;-36
2022/10/16 05:47:10;;;;;;;20.85;16.60;;;22.90;57.00;;;;;;4850858;54;21047;-38
2022/10/16 05:52:11;;;;;;;20.20;15.85;;;22.90;56.40;;;;;;4820914;54;21000;-33
2022/10/16 05:57:12;;;;;;;19.12;15.82;;;22.90;56.20;;;;;;4820388;54;21004;-32
2022/10/16 06:02:15;;;;;;;18.85;16.17;;;22.80;56.30;;;;;;4851016;54;21843;-29
2022/10/16 06:07:16;;;;;;;20.08;16.27;;;22.80;56.30;;;;;;4834211;54;21364;-25
2022/10/16 06:12:20;;;;;;;18.58;16.58;;;22.80;56.20;;;;;;4844159;54;21032;-27
2022/10/16 06:17:21;;;;;;;20.35;15.70;;;22.80;56.20;;;;;;4805163;54;21485;-28
2022/10/16 06:22:22;;;;;;;19.25;15.77;;;22.80;56.20;;;;;;4822667;54;21016;-31
2022/10/16 06:27:22;;;;;;;17.80;15.38;;;22.80;56.10;;;;;;4795916;58;21494;-28
2022/10/16 06:32:23;;;;;;;18.67;15.60;;;22.80;56.10;;;;;;4835485;54;21512;-29
2022/10/16 06:37:24;;;;;;;19.17;15.55;;;22.80;56.20;;;;;;4816889;54;21024;-26
2022/10/16 06:42:25;;;;;;;19.52;15.77;;;22.80;56.10;;;;;;4809628;54;21569;-28
2022/10/16 06:47:27;;;;;;;19.27;15.88;;;22.80;56.80;;;;;;4800794;54;21008;-29
2022/10/16 06:52:30;;;;;;;19.90;16.58;;;22.80;56.10;;;;;;4818437;54;21067;-30
2022/10/16 06:57:31;;;;;;;20.15;15.40;;;22.80;56.10;;;;;;4795493;58;21039;-32
2022/10/16 07:02:32;;;;;;;18.87;15.93;;;22.80;56.00;;;;;;4794954;58;21330;-30
2022/10/16 07:07:33;;;;;;;18.45;15.32;;;22.80;56.00;;;;;;4815915;54;22033;-33
2022/10/16 07:12:36;;;;;;;19.33;15.85;;;22.80;56.00;;;;;;4795629;58;21004;-29
2022/10/16 07:17:37;;;;;;;18.25;15.52;;;22.90;56.10;;;;;;4816317;54;21565;-29
2022/10/16 07:22:38;;;;;;;20.50;16.27;;;22.80;56.10;;;;;;4845809;54;21011;-30
2022/10/16 07:27:39;;;;;;;20.10;15.98;;;22.90;56.10;;;;;;4803117;54;21095;-30
2022/10/16 07:32:39;;;;;;;19.65;16.00;;;22.80;56.00;;;;;;4820655;54;21048;-35
2022/10/16 07:37:45;;;;;;;19.70;15.98;;;22.80;56.00;;;;;;4797519;54;21040;-29
2022/10/16 07:42:46;;;;;;;17.73;15.80;;;22.80;55.90;;;;;;4820414;54;21486;-26
2022/10/16 07:47:47;;;;;;;19.33;15.85;;;22.80;56.00;;;;;;4815079;54;21064;-30
2022/10/16 07:52:47;;;;;;;18.40;15.68;;;22.80;56.00;;;;;;4832604;54;21060;-33
2022/10/16 07:57:48;;;;;;;19.35;16.02;;;22.80;56.00;;;;;;4796161;54;21119;-33
2022/10/16 08:02:49;;;;;;;20.12;17.35;;;22.80;55.90;;;;;;4810745;54;21076;-32
2022/10/16 08:07:50;;;;;;;22.25;17.40;;;22.80;55.90;;;;;;4844189;54;21529;-30
2022/10/16 08:12:51;;;;;;;21.50;17.37;;;22.80;55.90;;;;;;4812197;54;20995;-30
2022/10/16 08:17:56;;;;;;;21.45;17.65;;;22.80;55.90;;;;;;4796537;54;21058;-27
2022/10/16 08:22:58;;;;;;;22.85;18.15;;;22.80;56.00;;;;;;4801315;54;20992;-29
2022/10/16 08:27:59;;;;;;;24.25;18.52;;;22.80;55.90;;;;;;4802885;54;21035;-36
2022/10/16 08:33:00;;;;;;;23.12;19.17;;;22.80;55.90;;;;;;4800546;54;21024;-29
2022/10/16 08:38:04;;;;;;;26.65;19.45;;;22.80;56.00;;;;;;4799696;54;21109;-27
2022/10/16 08:47:15;;;;;;;24.92;20.08;;;22.90;56.00;;;;;;4795484;58;21540;-29
2022/10/16 08:52:16;;;;;;;25.85;20.12;;;22.80;55.90;;;;;;4799200;54;21063;-29
2022/10/16 08:57:20;;;;;;;24.45;20.40;;;22.80;56.00;;;;;;4802260;54;21620;-28
2022/10/16 09:02:44;;;;;;;26.40;20.52;;;22.80;56.00;;;;;;4796835;54;21004;-34
2022/10/16 09:10:31;;;;;;;26.25;20.85;;;22.90;56.00;;;;;;4862881;54;21016;-29
2022/10/16 09:15:40;;;;;;;25.27;20.35;;;22.90;56.10;;;;;;4816347;54;20991;-34
2022/10/16 09:21:42;;;;;;;27.92;21.75;;;22.90;56.00;;;;;;4817525;54;21042;-33
2022/10/16 09:26:45;;;;;;;27.02;20.73;;;22.90;56.00;;;;;;4809971;54;21494;-29
2022/10/16 09:31:46;;;;;;;26.67;21.33;;;22.80;56.00;;;;;;4795619;58;21004;-29
2022/10/16 09:36:47;;;;;;;26.85;21.73;;;22.80;56.00;;;;;;4812880;54;21574;-29
2022/10/16 09:41:48;;;;;;;27.15;21.33;;;22.90;56.10;;;;;;4818957;54;21020;-33
2022/10/16 09:47:00;;;;;;;25.42;20.85;;;22.90;56.10;;;;;;4823975;54;21450;-34
2022/10/16 09:52:15;;;;;;;29.23;21.58;;;22.90;56.10;;;;;;4804179;54;21020;-29
2022/10/16 09:57:16;;;;;;;28.48;22.52;;;22.90;56.10;;;;;;4799592;54;21107;-29
2022/10/16 10:02:23;;;;;;;26.40;21.10;;;22.90;56.10;;;;;;4809011;54;21506;-36
2022/10/16 10:07:35;;;;;;;26.83;20.48;;;22.90;56.20;;;;;;4815074;54;21138;-32
2022/10/16 10:12:45;;;;;;;27.42;21.80;;;22.90;56.10;;;;;;4795295;55;21008;-30
2022/10/16 10:17:51;;;;;;;28.33;21.65;;;22.90;56.20;;;;;;4795636;54;21016;-35
2022/10/16 10:22:52;;;;;;;25.83;20.35;;;22.90;56.10;;;;;;4827790;54;21007;-29
2022/10/16 10:31:09;;;;;;;25.40;20.52;;;22.90;56.20;;;;;;4817806;54;21003;-26
2022/10/16 10:36:52;;;;;;;27.25;21.90;;;23.10;56.40;;;;;;4800694;54;21585;-27
2022/10/16 10:42:47;;;;;;;25.67;20.70;;;22.90;56.30;;;;;;4795534;55;21016;-32
2022/10/16 10:50:34;;;;;;;26.87;20.95;;;22.90;56.20;;;;;;4819126;54;21510;-30
2022/10/16 10:56:03;;;;;;;27.08;21.65;;;22.90;56.30;;;;;;4818235;54;21003;-30
2022/10/16 11:03:54;;;;;;;28.25;21.35;;;22.90;56.30;;;;;;4812606;54;21446;-29
2022/10/16 11:09:19;;;;;;;28.15;21.25;;;22.90;56.30;;;;;;4832181;54;21079;-30
2022/10/16 11:14:38;;;;;;;26.60;21.08;;;22.90;56.30;;;;;;4795339;55;21063;-27
2022/10/16 11:20:41;;;;;;;28.48;20.73;;;22.90;56.40;;;;;;4813072;54;21003;-33
2022/10/16 11:25:45;;;;;;;26.95;20.88;;;22.90;56.30;;;;;;4798015;54;21039;-29
2022/10/16 11:31:13;;;;;;;25.27;21.45;;;22.90;56.40;;;;;;4811061;54;21106;-31
2022/10/16 11:36:35;;;;;;;26.83;21.62;;;22.90;56.50;;;;;;4794006;58;21032;-29
2022/10/16 11:41:51;;;;;;;27.27;20.60;;;22.90;56.50;;;;;;4799683;54;21008;-31
2022/10/16 11:47:08;;;;;;;26.60;21.40;;;22.90;56.40;;;;;;4831133;54;21168;-28
2022/10/16 11:52:30;;;;;;;27.52;21.48;;;22.90;56.60;;;;;;4800771;54;21055;-28
2022/10/16 11:57:40;;;;;;;25.52;20.77;;;22.90;56.50;;;;;;4833568;54;21075;-32
2022/10/16 12:02:54;;;;;;;27.27;20.77;;;22.90;56.50;;;;;;4806416;54;21043;-32
2022/10/16 12:08:09;;;;;;;28.05;22.02;;;22.90;56.60;;;;;;4795624;58;21008;-33
2022/10/16 12:13:36;;;;;;;27.20;21.02;;;22.90;56.50;;;;;;4806078;54;21938;-29
2022/10/16 12:18:41;;;;;;;28.73;21.90;;;22.90;56.50;;;;;;4856068;54;21036;-28
2022/10/16 12:23:53;;;;;;;27.08;21.50;;;22.90;56.60;;;;;;4806520;54;21059;-27
2022/10/16 12:28:57;;;;;;;27.87;21.98;;;22.90;56.60;;;;;;4828023;54;21039;-27
2022/10/16 12:34:02;;;;;;;28.33;21.90;;;22.90;56.70;;;;;;4795569;55;21087;-27
2022/10/16 12:39:03;;;;;;;25.15;21.48;;;22.90;56.60;;;;;;4795404;58;21043;-32
2022/10/16 12:44:04;;;;;;;25.85;21.17;;;22.90;56.70;;;;;;4795630;55;21082;-33
2022/10/16 12:50:23;;;;;;;26.12;21.42;;;22.90;56.70;;;;;;4817327;54;22273;-40
2022/10/16 12:55:27;;;;;;;26.12;21.80;;;22.90;56.70;;;;;;4808373;54;21086;-31
2022/10/16 13:01:07;;;;;;;29.98;23.30;;;23.10;56.80;;;;;;4837104;54;21600;-26
2022/10/16 13:06:47;;;;;;;27.20;21.65;;;22.90;56.60;;;;;;4801662;54;21027;-27
2022/10/16 13:14:09;;;;;;;25.25;21.30;;;22.90;56.60;;;;;;4829821;54;21457;-31
2022/10/16 13:22:17;;;;;;;25.90;21.17;;;22.90;56.70;;;;;;4854685;54;21059;-30
2022/10/16 13:27:53;;;;;;;26.25;21.40;;;22.90;56.60;;;;;;4795559;58;20988;-28
2022/10/16 13:33:14;;;;;;;27.95;21.80;;;22.90;56.70;;;;;;4805594;54;21076;-27
2022/10/16 13:38:19;;;;;;;26.95;20.90;;;22.90;56.70;;;;;;4816794;54;21088;-29
2022/10/16 13:43:23;;;;;;;25.70;21.27;;;22.90;56.70;;;;;;4798756;54;21059;-27
2022/10/16 13:48:24;;;;;;;26.37;21.12;;;22.90;56.80;;;;;;4832031;54;21103;-31
2022/10/16 13:53:25;;;;;;;25.17;21.42;;;22.90;56.80;;;;;;4796697;54;21028;-29
2022/10/16 13:58:26;;;;;;;24.58;20.40;;;22.90;56.70;;;;;;4825172;54;20996;-29
2022/10/16 14:03:29;;;;;;;24.92;22.05;;;22.90;56.80;;;;;;4812244;54;21501;-29
2022/10/16 14:08:31;;;;;;;24.95;20.70;;;22.90;56.80;;;;;;4795300;58;21047;-26
2022/10/16 14:13:37;;;;;;;25.33;21.52;;;23.00;56.90;;;;;;4797048;54;21035;-30
2022/10/16 14:18:39;;;;;;;26.48;20.88;;;23.00;56.80;;;;;;4814470;54;21958;-26
2022/10/16 14:23:41;;;;;;;25.05;21.87;;;23.00;56.80;;;;;;4800133;54;21092;-32
2022/10/16 14:28:44;;;;;;;25.95;20.48;;;22.90;56.80;;;;;;4803247;54;21020;-31
2022/10/16 14:33:44;;;;;;;25.05;21.27;;;22.90;56.80;;;;;;4810873;54;21071;-33
2022/10/16 14:39:13;;;;;;;23.87;20.60;;;22.90;56.80;;;;;;4807969;54;21032;-32
2022/10/16 14:44:15;;;;;;;24.17;21.12;;;22.90;56.80;;;;;;4826278;54;21024;-29
2022/10/16 14:49:20;;;;;;;25.05;21.23;;;23.00;56.90;;;;;;4856914;54;21040;-30
2022/10/16 14:54:21;;;;;;;23.87;20.37;;;23.00;57.00;;;;;;4809536;54;21466;-30
2022/10/16 14:59:46;;;;;;;23.48;20.27;;;22.90;56.90;;;;;;4878768;54;21533;-30
2022/10/16 15:04:47;;;;;;;21.87;19.20;;;23.00;56.90;;;;;;4821600;54;21073;-36
2022/10/16 15:09:48;;;;;;;24.92;20.92;;;22.90;57.00;;;;;;4796764;54;21064;-33
2022/10/16 15:14:50;;;;;;;23.02;20.55;;;22.90;57.00;;;;;;4813608;54;21008;-37
2022/10/16 15:19:51;;;;;;;27.37;21.58;;;22.90;57.00;;;;;;4830062;54;21111;-26
2022/10/16 15:24:52;;;;;;;23.75;20.83;;;22.90;57.00;;;;;;4796012;54;21043;-27
2022/10/16 15:29:52;;;;;;;21.60;19.20;;;22.90;57.10;;;;;;4874691;54;21490;-31
2022/10/16 15:34:53;;;;;;;23.75;19.58;;;22.90;57.10;;;;;;4805197;54;21636;-34
2022/10/16 15:39:54;;;;;;;22.20;19.80;;;23.00;57.20;;;;;;4797211;54;21004;-29
2022/10/16 15:44:55;;;;;;;23.20;19.83;;;23.00;57.10;;;;;;4795719;54;20995;-29
2022/10/16 15:49:56;;;;;;;23.85;19.55;;;23.00;57.20;;;;;;4796427;54;21518;-29
2022/10/16 15:54:56;;;;;;;22.77;19.85;;;23.00;57.80;;;;;;4811956;54;21015;-27
2022/10/16 15:59:57;;;;;;;22.15;19.48;;;23.00;57.20;;;;;;4797437;54;21067;-32
2022/10/16 16:04:58;;;;;;;23.87;19.75;;;22.90;57.20;;;;;;4811881;54;22178;-28
2022/10/16 16:09:59;;;;;;;22.73;19.92;;;23.00;57.20;;;;;;4795352;54;21556;-27
2022/10/16 16:15:00;;;;;;;23.90;20.37;;;22.90;57.20;;;;;;4797352;54;21000;-30
2022/10/16 16:20:02;;;;;;;21.25;18.83;;;22.90;57.20;;;;;;4809840;54;21016;-29
2022/10/16 16:25:02;;;;;;;22.73;18.80;;;23.00;57.20;;;;;;4853167;54;21012;-26
2022/10/16 16:30:06;;;;;;;24.17;19.83;;;22.90;57.20;;;;;;4795730;58;20996;-32
2022/10/16 16:35:10;;;;;;;24.42;21.30;;;22.90;57.20;;;;;;4794709;58;21549;-29
2022/10/16 16:40:11;;;;;;;23.45;19.45;;;23.00;57.30;;;;;;4811414;54;21000;-27
2022/10/16 16:45:12;;;;;;;22.92;19.90;;;23.00;57.30;;;;;;4806874;54;21075;-24
2022/10/16 16:50:13;;;;;;;23.92;20.45;;;23.00;57.30;;;;;;4817197;54;21035;-26
2022/10/16 16:55:14;;;;;;;24.50;21.10;;;23.00;57.30;;;;;;4874265;54;21052;-27
2022/10/16 17:00:14;;;;;;;23.62;20.37;;;23.00;57.30;;;;;;4808209;54;21016;-26
2022/10/16 17:05:16;;;;;;;25.83;21.60;;;22.90;57.30;;;;;;4795428;58;21012;-31
2022/10/16 17:10:17;;;;;;;27.13;22.17;;;22.90;57.30;;;;;;4796089;58;20984;-27
2022/10/16 17:15:18;;;;;;;30.10;22.55;;;22.90;57.30;;;;;;4796950;54;21003;-26
2022/10/16 17:20:18;;;;;;;27.48;23.40;;;22.90;57.40;;;;;;4798000;54;21083;-25
2022/10/16 17:25:19;;;;;;;30.20;24.02;;;23.00;57.40;;;;;;4818980;54;21533;-26
2022/10/16 17:30:22;;;;;;;28.83;23.87;;;22.90;57.30;;;;;;4819468;54;20987;-28
2022/10/16 17:35:23;;;;;;;28.15;24.90;;;22.90;57.40;;;;;;4797485;54;21092;-27
2022/10/16 17:40:25;;;;;;;32.00;26.52;;;23.00;57.50;;;;;;4800762;54;21012;-28
2022/10/16 17:45:26;;;;;;;32.38;27.33;;;22.90;57.40;;;;;;4839823;54;21605;-29
2022/10/16 17:50:27;;;;;;;32.90;27.08;;;22.90;57.50;;;;;;4841744;54;21011;-28
2022/10/16 17:55:28;;;;;;;33.00;28.30;;;22.90;57.50;;;;;;4843945;54;21008;-28
2022/10/16 18:00:29;;;;;;;37.17;29.52;;;23.00;57.60;;;;;;4808513;54;21114;-30
2022/10/16 18:05:29;;;;;;;35.42;30.25;;;22.90;57.60;;;;;;4872259;54;20996;-28
2022/10/16 18:10:30;;;;;;;38.47;30.80;;;23.10;57.70;;;;;;4818142;54;21597;-27
2022/10/16 18:15:31;;;;;;;38.90;30.02;;;22.90;57.60;;;;;;4795466;58;21039;-27
2022/10/16 18:20:32;;;;;;;37.17;30.62;;;23.00;57.70;;;;;;4826106;54;21055;-25
2022/10/16 18:25:33;;;;;;;37.42;31.33;;;22.90;57.60;;;;;;4818155;54;21008;-29
2022/10/16 18:30:34;;;;;;;37.92;31.98;;;22.90;57.70;;;;;;4819114;54;21020;-30
2022/10/16 18:35:36;;;;;;;42.60;33.55;;;22.90;57.60;;;;;;4795014;58;21163;-25
2022/10/16 18:40:36;;;;;;;42.22;33.58;;;22.90;57.70;;;;;;4795311;58;21055;-26
2022/10/16 18:45:38;;;;;;;42.90;34.78;;;23.00;57.80;;;;;;4830018;54;21589;-26
2022/10/16 18:50:39;;;;;;;41.95;34.05;;;22.90;57.80;;;;;;4822111;54;21478;-25
2022/10/16 18:55:42;;;;;;;43.78;35.90;;;22.90;57.90;;;;;;4809119;54;21012;-26
2022/10/16 19:00:46;;;;;;;44.72;36.13;;;22.90;57.80;;;;;;4794863;58;20996;-27
2022/10/16 19:05:47;;;;;;;47.40;37.58;;;22.90;57.80;;;;;;4816176;54;21566;-29
2022/10/16 19:10:48;;;;;;;44.72;36.72;;;22.90;57.80;;;;;;4808203;54;20988;-31
2022/10/16 19:15:48;;;;;;;45.47;36.53;;;22.90;57.90;;;;;;4811298;54;21023;-32
2022/10/16 19:20:49;;;;;;;47.47;37.40;;;22.90;57.90;;;;;;4795013;58;21023;-31
2022/10/16 19:25:50;;;;;;;49.33;38.92;;;22.90;57.90;;;;;;4835593;54;21036;-33
2022/10/16 19:30:51;;;;;;;48.50;40.05;;;22.90;57.90;;;;;;4839917;54;21814;-26
2022/10/16 19:35:51;;;;;;;46.47;37.83;;;23.00;57.90;;;;;;4813707;54;22030;-29
2022/10/16 19:40:52;;;;;;;48.03;37.45;;;22.90;57.90;;;;;;4801772;54;21561;-32
2022/10/16 19:45:53;;;;;;;45.97;38.13;;;22.90;57.90;;;;;;4815301;54;21119;-31
2022/10/16 19:50:54;;;;;;;47.45;39.95;;;22.90;57.90;;;;;;4832352;54;21012;-33
2022/10/16 19:55:56;;;;;;;47.13;38.42;;;22.90;57.90;;;;;;4854864;54;21462;-34
2022/10/16 20:00:57;;;;;;;48.90;38.35;;;22.90;57.90;;;;;;4814451;54;21072;-28
2022/10/16 20:06:04;;;;;;;47.58;39.25;;;22.90;57.90;;;;;;4845505;54;21557;-33
2022/10/16 20:11:08;;;;;;;;;;;22.90;57.90;;;;;;4844188;54;21572;-31
2022/10/16 20:16:10;;;;;;;48.22;39.00;;;22.90;57.90;;;;;;4801424;54;20111;-32
2022/10/16 20:21:14;;;;;;;47.17;38.35;;;22.90;57.90;;;;;;4800961;54;21019;-28
2022/10/16 20:26:17;;;;;;;48.55;38.05;;;22.90;58.40;;;;;;4803837;54;21055;-29
2022/10/16 20:31:27;;;;;;;49.28;40.33;;;22.90;57.90;;;;;;4805425;54;21008;-33
2022/10/16 20:36:29;;;;;;;47.35;39.35;;;22.90;57.80;;;;;;4794484;58;21652;-28
2022/10/16 20:41:30;;;;;;;47.33;39.00;;;22.90;57.80;;;;;;4795271;54;22323;-30
2022/10/16 20:46:31;;;;;;;46.33;38.40;;;22.90;57.80;;;;;;4800972;54;21019;-32
2022/10/16 20:51:32;;;;;;;50.28;40.00;;;22.90;57.80;;;;;;4802128;54;21008;-30
2022/10/16 20:56:35;;;;;;;49.08;39.95;;;22.90;57.80;;;;;;4795267;58;21023;-39
2022/10/16 21:01:35;;;;;;;50.15;39.95;;;22.90;57.70;;;;;;4831012;54;21066;-35
2022/10/16 21:06:38;;;;;;;47.72;40.10;;;22.90;57.70;;;;;;4826036;54;21051;-25
2022/10/16 21:11:39;;;;;;;51.67;41.00;;;22.90;57.70;;;;;;4807255;54;21067;-33
2022/10/16 21:16:39;;;;;;;48.05;38.40;;;22.90;57.70;;;;;;4797055;54;21466;-29
2022/10/16 21:21:40;;;;;;;47.38;39.10;;;22.90;57.70;;;;;;4850984;54;21478;-30
2022/10/16 21:26:41;;;;;;;48.83;39.38;;;22.90;57.70;;;;;;4818765;54;21027;-30
2022/10/16 21:31:42;;;;;;;45.70;39.03;;;22.90;57.70;;;;;;4799217;54;21475;-29
2022/10/16 21:36:43;;;;;;;50.90;39.83;;;22.90;57.60;;;;;;4801831;54;21016;-27
2022/10/16 21:41:47;;;;;;;47.92;39.60;;;22.90;57.60;;;;;;4794155;58;21015;-30
2022/10/16 21:46:49;;;;;;;48.10;38.38;;;22.90;57.60;;;;;;4866601;54;21043;-29
2022/10/16 21:51:50;;;;;;;48.25;39.58;;;22.90;57.70;;;;;;4796187;58;21118;-28
2022/10/16 21:56:52;;;;;;;44.20;36.75;;;22.90;57.60;;;;;;4827399;54;20995;-28
2022/10/16 22:01:54;;;;;;;45.55;37.72;;;22.90;57.50;;;;;;4816718;54;21024;-26
2022/10/16 22:06:54;;;;;;;46.90;37.90;;;22.90;57.70;;;;;;4802114;54;21501;-27
2022/10/16 22:11:55;;;;;;;46.90;38.03;;;22.90;57.70;;;;;;4818831;54;21035;-27
2022/10/16 22:16:56;;;;;;;47.85;38.20;;;22.90;57.60;;;;;;4819017;54;20996;-25
2022/10/16 22:21:59;;;;;;;44.83;37.40;;;22.80;57.60;;;;;;4820601;54;21079;-28
2022/10/16 22:27:00;;;;;;;44.05;37.45;;;22.80;57.60;;;;;;4836210;54;21518;-32
2022/10/16 22:32:00;;;;;;;46.03;37.55;;;22.80;58.40;;;;;;4815385;54;21073;-30
2022/10/16 22:37:01;;;;;;;45.38;36.80;;;22.90;57.70;;;;;;4835188;54;21004;-27
2022/10/16 22:42:02;;;;;;;45.92;37.40;;;22.90;57.70;;;;;;4817705;54;21055;-30
2022/10/16 22:47:03;;;;;;;42.47;35.28;;;22.80;57.60;;;;;;4795237;58;21506;-27
2022/10/16 22:52:04;;;;;;;43.15;35.20;;;22.80;57.70;;;;;;4827379;54;21027;-27
2022/10/16 22:57:04;;;;;;;42.62;35.63;;;22.90;57.70;;;;;;4816251;54;21023;-31
2022/10/16 23:02:05;;;;;;;42.62;36.33;;;22.90;57.70;;;;;;4795325;58;21020;-28
2022/10/16 23:07:06;;;;;;;41.25;35.38;;;22.80;57.70;;;;;;4846714;54;21012;-31
2022/10/16 23:12:10;;;;;;;44.40;36.58;;;22.80;57.70;;;;;;4833914;54;21012;-30
2022/10/16 23:17:11;;;;;;;41.92;34.65;;;22.80;57.70;;;;;;4850957;54;21035;-30
2022/10/16 23:22:11;;;;;;;41.05;34.42;;;22.80;57.70;;;;;;4816913;54;21521;-35
2022/10/16 23:27:12;;;;;;;41.75;35.35;;;22.80;57.70;;;;;;4818463;54;21485;-26
2022/10/16 23:32:13;;;;;;;42.58;33.60;;;22.80;57.70;;;;;;4804949;54;21095;-26
2022/10/16 23:37:14;;;;;;;41.47;34.65;;;22.80;57.80;;;;;;4825365;54;20992;-30
2022/10/16 23:42:15;;;;;;;40.75;34.45;;;22.80;57.70;;;;;;4817722;54;21067;-27
2022/10/16 23:47:16;;;;;;;41.28;34.05;;;22.80;57.70;;;;;;4803104;54;21040;-29
2022/10/16 23:52:17;;;;;;;41.50;34.55;;;22.80;57.60;;;;;;4805661;54;20992;-27
2022/10/16 23:57:19;;;;;;;42.28;35.33;;;22.80;57.70;;;;;;4871206;54;21028;-32
